sensor_id;sensor_type;location;lat;lon;timestamp;temperature;humidity
21906;DHT22;11117;48.644;9.006;2022-11-15T00:00:30;8.50;99.90
21906;DHT22;11117;48.644;9.006;2022-11-15T00:02:55;8.50;99.90
21906;DHT22;11117;48.644;9.006;2022-11-15T00:05:21;8.50;99.90
21906;DHT22;11117;48.644;9.006;2022-11-15T00:07:46;8.50;99.90
21906;DHT22;11117;48.644;9.006;2022-11-15T00:10:12;8.40;99.90
21906;DHT22;11117;48.644;9.006;2022-11-15T00:12:38;8.50;99.90
21906;DHT22;11117;48.644;9.006;2022-11-15T00:15:07;8.50;99.90
21906;DHT22;11117;48.644;9.006;2022-11-15T00:17:33;8.40;99.90
21906;DHT22;11117;48.644;9.006;2022-11-15T00:19:58;8.50;99.90
21906;DHT22;11117;48.644;9.006;2022-11-15T00:22:24;8.40;99.90
21906;DHT22;11117;48.644;9.006;2022-11-15T00:24:49;8.40;99.90
21906;DHT22;11117;48.644;9.006;2022-11-15T00:27:15;8.40;99.90
21906;DHT22;11117;48.644;9.006;2022-11-15T00:29:40;8.30;99.90
21906;DHT22;11117;48.644;9.006;2022-11-15T00:32:06;8.30;99.90
21906;DHT22;11117;48.644;9.006;2022-11-15T00:34:32;8.30;99.90
21906;DHT22;11117;48.644;9.006;2022-11-15T00:36:57;8.30;99.90
21906;DHT22;11117;48.644;9.006;2022-11-15T00:39:23;8.20;99.90
21906;DHT22;11117;48.644;9.006;2022-11-15T00:41:48;8.20;99.90
21906;DHT22;11117;48.644;9.006;2022-11-15T00:44:14;8.10;99.90
21906;DHT22;11117;48.644;9.006;2022-11-15T00:46:39;8.10;99.90
21906;DHT22;11117;48.644;9.006;2022-11-15T00:49:05;8.00;99.90
21906;DHT22;11117;48.644;9.006;2022-11-15T00:51:30;8.00;99.90
21906;DHT22;11117;48.644;9.006;2022-11-15T00:53:56;8.00;99.90
21906;DHT22;11117;48.644;9.006;2022-11-15T00:56:21;8.00;99.90
21906;DHT22;11117;48.644;9.006;2022-11-15T00:58:47;8.00;99.90
21906;DHT22;11117;48.644;9.006;2022-11-15T01:01:14;8.00;99.90
21906;DHT22;11117;48.644;9.006;2022-11-15T01:03:41;8.00;99.90
21906;DHT22;11117;48.644;9.006;2022-11-15T01:06:07;8.00;99.90
21906;DHT22;11117;48.644;9.006;2022-11-15T01:08:33;8.00;99.90
21906;DHT22;11117;48.644;9.006;2022-11-15T01:11:04;8.00;99.90
21906;DHT22;11117;48.644;9.006;2022-11-15T01:13:31;8.00;99.90
21906;DHT22;11117;48.644;9.006;2022-11-15T01:15:57;7.90;99.90
21906;DHT22;11117;48.644;9.006;2022-11-15T01:18:23;7.90;99.90
21906;DHT22;11117;48.644;9.006;2022-11-15T01:20:48;7.90;99.90
21906;DHT22;11117;48.644;9.006;2022-11-15T01:23:14;7.90;99.90
21906;DHT22;11117;48.644;9.006;2022-11-15T01:25:40;7.90;99.90
21906;DHT22;11117;48.644;9.006;2022-11-15T01:28:05;7.80;99.90
21906;DHT22;11117;48.644;9.006;2022-11-15T01:30:31;7.80;99.90
21906;DHT22;11117;48.644;9.006;2022-11-15T01:32:57;7.80;99.90
21906;DHT22;11117;48.644;9.006;2022-11-15T01:35:23;7.80;99.90
21906;DHT22;11117;48.644;9.006;2022-11-15T01:37:49;7.90;99.90
21906;DHT22;11117;48.644;9.006;2022-11-15T01:40:15;7.90;99.90
21906;DHT22;11117;48.644;9.006;2022-11-15T01:42:40;7.90;99.90
21906;DHT22;11117;48.644;9.006;2022-11-15T01:45:07;7.90;99.90
21906;DHT22;11117;48.644;9.006;2022-11-15T01:47:40;7.90;99.90
21906;DHT22;11117;48.644;9.006;2022-11-15T01:50:14;8.00;99.90
21906;DHT22;11117;48.644;9.006;2022-11-15T01:52:41;8.00;99.90
21906;DHT22;11117;48.644;9.006;2022-11-15T01:55:26;8.00;99.90
21906;DHT22;11117;48.644;9.006;2022-11-15T01:57:56;8.00;99.90
21906;DHT22;11117;48.644;9.006;2022-11-15T02:00:24;8.10;99.90
21906;DHT22;11117;48.644;9.006;2022-11-15T02:02:51;8.10;99.90
21906;DHT22;11117;48.644;9.006;2022-11-15T02:05:17;8.10;99.90
21906;DHT22;11117;48.644;9.006;2022-11-15T02:07:42;8.00;99.90
21906;DHT22;11117;48.644;9.006;2022-11-15T02:10:11;8.00;99.90
21906;DHT22;11117;48.644;9.006;2022-11-15T02:12:37;8.00;99.90
21906;DHT22;11117;48.644;9.006;2022-11-15T02:15:04;8.00;99.90
21906;DHT22;11117;48.644;9.006;2022-11-15T02:20:49;8.00;99.90
21906;DHT22;11117;48.644;9.006;2022-11-15T02:28:44;8.10;99.90
21906;DHT22;11117;48.644;9.006;2022-11-15T02:33:55;8.10;99.90
21906;DHT22;11117;48.644;9.006;2022-11-15T02:42:03;8.00;99.90
21906;DHT22;11117;48.644;9.006;2022-11-15T02:44:37;8.00;99.90
21906;DHT22;11117;48.644;9.006;2022-11-15T02:47:07;8.00;99.90
21906;DHT22;11117;48.644;9.006;2022-11-15T02:49:34;8.10;99.90
21906;DHT22;11117;48.644;9.006;2022-11-15T02:52:00;8.10;99.90
21906;DHT22;11117;48.644;9.006;2022-11-15T02:54:29;8.10;99.90
21906;DHT22;11117;48.644;9.006;2022-11-15T02:57:06;8.10;99.90
21906;DHT22;11117;48.644;9.006;2022-11-15T03:02:18;8.10;99.90
21906;DHT22;11117;48.644;9.006;2022-11-15T03:07:25;8.00;99.90
21906;DHT22;11117;48.644;9.006;2022-11-15T03:10:05;8.00;99.90
21906;DHT22;11117;48.644;9.006;2022-11-15T03:12:36;8.00;99.90
21906;DHT22;11117;48.644;9.006;2022-11-15T03:15:29;8.10;99.90
21906;DHT22;11117;48.644;9.006;2022-11-15T03:18:12;8.10;99.90
21906;DHT22;11117;48.644;9.006;2022-11-15T03:20:43;8.10;99.90
21906;DHT22;11117;48.644;9.006;2022-11-15T03:23:11;8.10;99.90
21906;DHT22;11117;48.644;9.006;2022-11-15T03:25:41;8.10;99.90
21906;DHT22;11117;48.644;9.006;2022-11-15T03:28:10;8.20;99.90
21906;DHT22;11117;48.644;9.006;2022-11-15T03:30:38;8.20;99.90
21906;DHT22;11117;48.644;9.006;2022-11-15T03:33:06;8.30;99.90
21906;DHT22;11117;48.644;9.006;2022-11-15T03:35:37;8.20;99.90
21906;DHT22;11117;48.644;9.006;2022-11-15T03:38:19;8.30;99.90
21906;DHT22;11117;48.644;9.006;2022-11-15T03:40:59;8.30;99.90
21906;DHT22;11117;48.644;9.006;2022-11-15T03:46:28;8.30;99.90
21906;DHT22;11117;48.644;9.006;2022-11-15T03:49:07;8.30;99.90
21906;DHT22;11117;48.644;9.006;2022-11-15T03:51:34;8.30;99.90
21906;DHT22;11117;48.644;9.006;2022-11-15T03:54:05;8.30;99.90
21906;DHT22;11117;48.644;9.006;2022-11-15T03:56:31;8.20;99.90
21906;DHT22;11117;48.644;9.006;2022-11-15T03:58:56;8.20;99.90
21906;DHT22;11117;48.644;9.006;2022-11-15T04:01:22;8.20;99.90
21906;DHT22;11117;48.644;9.006;2022-11-15T04:03:51;8.30;99.90
21906;DHT22;11117;48.644;9.006;2022-11-15T04:06:16;8.40;99.90
21906;DHT22;11117;48.644;9.006;2022-11-15T04:08:42;8.30;99.90
21906;DHT22;11117;48.644;9.006;2022-11-15T04:11:07;8.30;99.90
21906;DHT22;11117;48.644;9.006;2022-11-15T04:13:33;8.30;99.90
21906;DHT22;11117;48.644;9.006;2022-11-15T04:15:58;8.40;99.90
21906;DHT22;11117;48.644;9.006;2022-11-15T04:18:24;8.40;99.90
21906;DHT22;11117;48.644;9.006;2022-11-15T04:20:49;8.40;99.90
21906;DHT22;11117;48.644;9.006;2022-11-15T04:23:20;8.40;99.90
21906;DHT22;11117;48.644;9.006;2022-11-15T04:25:49;8.50;99.90
21906;DHT22;11117;48.644;9.006;2022-11-15T04:28:15;8.50;99.90
21906;DHT22;11117;48.644;9.006;2022-11-15T04:30:40;8.50;99.90
21906;DHT22;11117;48.644;9.006;2022-11-15T04:33:06;8.50;99.90
21906;DHT22;11117;48.644;9.006;2022-11-15T04:35:31;8.50;99.90
21906;DHT22;11117;48.644;9.006;2022-11-15T04:37:58;8.60;99.90
21906;DHT22;11117;48.644;9.006;2022-11-15T04:40:23;8.60;99.90
21906;DHT22;11117;48.644;9.006;2022-11-15T04:42:49;8.60;99.90
21906;DHT22;11117;48.644;9.006;2022-11-15T04:45:14;8.60;99.90
21906;DHT22;11117;48.644;9.006;2022-11-15T04:47:42;8.70;99.90
21906;DHT22;11117;48.644;9.006;2022-11-15T04:50:08;8.70;99.90
21906;DHT22;11117;48.644;9.006;2022-11-15T04:52:34;8.70;99.90
21906;DHT22;11117;48.644;9.006;2022-11-15T04:54:59;8.60;99.90
21906;DHT22;11117;48.644;9.006;2022-11-15T04:57:25;8.60;99.90
21906;DHT22;11117;48.644;9.006;2022-11-15T04:59:50;8.50;99.90
21906;DHT22;11117;48.644;9.006;2022-11-15T05:02:16;8.50;99.90
21906;DHT22;11117;48.644;9.006;2022-11-15T05:04:41;8.40;99.90
21906;DHT22;11117;48.644;9.006;2022-11-15T05:07:07;8.40;99.90
21906;DHT22;11117;48.644;9.006;2022-11-15T05:09:32;8.40;99.90
21906;DHT22;11117;48.644;9.006;2022-11-15T05:11:58;8.40;99.90
21906;DHT22;11117;48.644;9.006;2022-11-15T05:14:23;8.40;99.90
21906;DHT22;11117;48.644;9.006;2022-11-15T05:16:49;8.40;99.90
21906;DHT22;11117;48.644;9.006;2022-11-15T05:19:14;8.40;99.90
21906;DHT22;11117;48.644;9.006;2022-11-15T05:21:40;8.40;99.90
21906;DHT22;11117;48.644;9.006;2022-11-15T05:24:06;8.40;99.90
21906;DHT22;11117;48.644;9.006;2022-11-15T05:26:32;8.50;99.90
21906;DHT22;11117;48.644;9.006;2022-11-15T05:28:58;8.50;99.90
21906;DHT22;11117;48.644;9.006;2022-11-15T05:31:25;8.50;99.90
21906;DHT22;11117;48.644;9.006;2022-11-15T05:33:51;8.50;99.90
21906;DHT22;11117;48.644;9.006;2022-11-15T05:39:15;8.50;99.90
21906;DHT22;11117;48.644;9.006;2022-11-15T05:41:44;8.50;99.90
21906;DHT22;11117;48.644;9.006;2022-11-15T05:44:13;8.50;99.90
21906;DHT22;11117;48.644;9.006;2022-11-15T05:46:40;8.50;99.90
21906;DHT22;11117;48.644;9.006;2022-11-15T05:49:10;8.50;99.90
21906;DHT22;11117;48.644;9.006;2022-11-15T05:51:36;8.50;99.90
21906;DHT22;11117;48.644;9.006;2022-11-15T05:54:02;8.40;99.90
21906;DHT22;11117;48.644;9.006;2022-11-15T05:56:28;8.40;99.90
21906;DHT22;11117;48.644;9.006;2022-11-15T05:58:55;8.40;99.90
21906;DHT22;11117;48.644;9.006;2022-11-15T06:01:22;8.40;99.90
21906;DHT22;11117;48.644;9.006;2022-11-15T06:03:48;8.30;99.90
21906;DHT22;11117;48.644;9.006;2022-11-15T06:06:14;8.30;99.90
21906;DHT22;11117;48.644;9.006;2022-11-15T06:08:39;8.20;99.90
21906;DHT22;11117;48.644;9.006;2022-11-15T06:11:05;8.20;99.90
21906;DHT22;11117;48.644;9.006;2022-11-15T06:13:32;8.20;99.90
21906;DHT22;11117;48.644;9.006;2022-11-15T06:15:58;8.30;99.90
21906;DHT22;11117;48.644;9.006;2022-11-15T06:18:23;8.20;99.90
21906;DHT22;11117;48.644;9.006;2022-11-15T06:20:49;8.20;99.90
21906;DHT22;11117;48.644;9.006;2022-11-15T06:23:15;8.20;99.90
21906;DHT22;11117;48.644;9.006;2022-11-15T06:25:40;8.20;99.90
21906;DHT22;11117;48.644;9.006;2022-11-15T06:28:06;8.20;99.90
21906;DHT22;11117;48.644;9.006;2022-11-15T06:30:31;8.20;99.90
21906;DHT22;11117;48.644;9.006;2022-11-15T06:33:04;8.20;99.90
21906;DHT22;11117;48.644;9.006;2022-11-15T06:35:33;8.20;99.90
21906;DHT22;11117;48.644;9.006;2022-11-15T06:38:04;8.20;99.90
21906;DHT22;11117;48.644;9.006;2022-11-15T06:40:30;8.30;99.90
21906;DHT22;11117;48.644;9.006;2022-11-15T06:42:59;8.30;99.90
21906;DHT22;11117;48.644;9.006;2022-11-15T06:45:25;8.40;99.90
21906;DHT22;11117;48.644;9.006;2022-11-15T06:47:51;8.50;99.90
21906;DHT22;11117;48.644;9.006;2022-11-15T06:50:16;8.60;99.90
21906;DHT22;11117;48.644;9.006;2022-11-15T06:52:42;8.70;99.90
21906;DHT22;11117;48.644;9.006;2022-11-15T06:55:08;8.70;99.90
21906;DHT22;11117;48.644;9.006;2022-11-15T06:57:34;8.80;99.90
21906;DHT22;11117;48.644;9.006;2022-11-15T06:59:59;8.80;99.90
21906;DHT22;11117;48.644;9.006;2022-11-15T07:02:25;8.80;99.90
21906;DHT22;11117;48.644;9.006;2022-11-15T07:04:51;8.90;99.90
21906;DHT22;11117;48.644;9.006;2022-11-15T07:07:16;8.90;99.90
21906;DHT22;11117;48.644;9.006;2022-11-15T07:09:42;8.90;99.90
21906;DHT22;11117;48.644;9.006;2022-11-15T07:12:07;9.00;99.90
21906;DHT22;11117;48.644;9.006;2022-11-15T07:14:33;9.00;99.90
21906;DHT22;11117;48.644;9.006;2022-11-15T07:16:58;9.10;99.90
21906;DHT22;11117;48.644;9.006;2022-11-15T07:19:24;9.10;99.90
21906;DHT22;11117;48.644;9.006;2022-11-15T07:21:49;9.10;99.90
21906;DHT22;11117;48.644;9.006;2022-11-15T07:24:15;9.10;99.90
21906;DHT22;11117;48.644;9.006;2022-11-15T07:26:40;9.30;99.90
21906;DHT22;11117;48.644;9.006;2022-11-15T07:29:06;9.40;99.90
21906;DHT22;11117;48.644;9.006;2022-11-15T07:31:31;9.50;99.90
21906;DHT22;11117;48.644;9.006;2022-11-15T07:33:57;9.60;99.90
21906;DHT22;11117;48.644;9.006;2022-11-15T07:36:22;9.80;99.90
21906;DHT22;11117;48.644;9.006;2022-11-15T07:38:48;10.00;99.90
21906;DHT22;11117;48.644;9.006;2022-11-15T07:41:13;10.20;99.90
21906;DHT22;11117;48.644;9.006;2022-11-15T07:43:39;10.40;99.90
21906;DHT22;11117;48.644;9.006;2022-11-15T07:46:06;10.50;99.90
21906;DHT22;11117;48.644;9.006;2022-11-15T07:48:31;10.50;99.90
21906;DHT22;11117;48.644;9.006;2022-11-15T07:50:57;10.60;99.90
21906;DHT22;11117;48.644;9.006;2022-11-15T07:53:22;10.70;99.90
21906;DHT22;11117;48.644;9.006;2022-11-15T07:55:48;10.70;99.90
21906;DHT22;11117;48.644;9.006;2022-11-15T07:58:14;10.70;99.90
21906;DHT22;11117;48.644;9.006;2022-11-15T08:00:39;10.70;99.90
21906;DHT22;11117;48.644;9.006;2022-11-15T08:03:09;10.80;99.90
21906;DHT22;11117;48.644;9.006;2022-11-15T08:05:36;10.80;99.90
21906;DHT22;11117;48.644;9.006;2022-11-15T08:08:02;10.80;99.90
21906;DHT22;11117;48.644;9.006;2022-11-15T08:10:28;10.80;99.90
21906;DHT22;11117;48.644;9.006;2022-11-15T08:13:05;10.90;99.90
21906;DHT22;11117;48.644;9.006;2022-11-15T08:15:32;10.90;99.90
21906;DHT22;11117;48.644;9.006;2022-11-15T08:17:59;11.00;99.90
21906;DHT22;11117;48.644;9.006;2022-11-15T08:20:26;11.10;99.90
21906;DHT22;11117;48.644;9.006;2022-11-15T08:22:52;11.20;99.90
21906;DHT22;11117;48.644;9.006;2022-11-15T08:25:18;11.30;99.90
21906;DHT22;11117;48.644;9.006;2022-11-15T08:27:43;11.40;99.90
21906;DHT22;11117;48.644;9.006;2022-11-15T08:30:10;11.60;99.90
21906;DHT22;11117;48.644;9.006;2022-11-15T08:32:35;11.80;99.90
21906;DHT22;11117;48.644;9.006;2022-11-15T08:35:01;12.00;99.90
21906;DHT22;11117;48.644;9.006;2022-11-15T08:37:27;12.10;99.90
21906;DHT22;11117;48.644;9.006;2022-11-15T08:39:52;12.30;99.90
21906;DHT22;11117;48.644;9.006;2022-11-15T08:42:18;12.50;99.90
21906;DHT22;11117;48.644;9.006;2022-11-15T08:44:43;12.60;99.90
21906;DHT22;11117;48.644;9.006;2022-11-15T08:47:11;12.80;99.90
21906;DHT22;11117;48.644;9.006;2022-11-15T08:49:37;12.90;99.90
21906;DHT22;11117;48.644;9.006;2022-11-15T08:52:02;13.10;99.90
21906;DHT22;11117;48.644;9.006;2022-11-15T08:54:28;13.20;99.90
21906;DHT22;11117;48.644;9.006;2022-11-15T08:56:53;13.30;99.90
21906;DHT22;11117;48.644;9.006;2022-11-15T08:59:19;13.40;99.90
21906;DHT22;11117;48.644;9.006;2022-11-15T09:01:45;13.30;99.90
21906;DHT22;11117;48.644;9.006;2022-11-15T09:04:10;12.90;99.90
21906;DHT22;11117;48.644;9.006;2022-11-15T09:06:36;12.70;99.90
21906;DHT22;11117;48.644;9.006;2022-11-15T09:09:02;12.40;99.90
21906;DHT22;11117;48.644;9.006;2022-11-15T09:11:28;12.30;99.90
21906;DHT22;11117;48.644;9.006;2022-11-15T09:13:53;12.20;99.90
21906;DHT22;11117;48.644;9.006;2022-11-15T09:16:19;12.30;99.90
21906;DHT22;11117;48.644;9.006;2022-11-15T09:18:44;12.50;99.90
21906;DHT22;11117;48.644;9.006;2022-11-15T09:21:10;12.70;99.90
21906;DHT22;11117;48.644;9.006;2022-11-15T09:23:36;13.10;99.90
21906;DHT22;11117;48.644;9.006;2022-11-15T09:26:03;13.30;99.90
21906;DHT22;11117;48.644;9.006;2022-11-15T09:28:30;13.50;99.90
21906;DHT22;11117;48.644;9.006;2022-11-15T09:30:57;13.70;99.90
21906;DHT22;11117;48.644;9.006;2022-11-15T09:33:23;13.50;99.90
21906;DHT22;11117;48.644;9.006;2022-11-15T09:35:49;13.60;99.90
21906;DHT22;11117;48.644;9.006;2022-11-15T09:38:14;13.40;99.90
21906;DHT22;11117;48.644;9.006;2022-11-15T09:40:40;13.50;99.90
21906;DHT22;11117;48.644;9.006;2022-11-15T09:48:41;13.90;99.90
21906;DHT22;11117;48.644;9.006;2022-11-15T09:51:23;14.00;99.90
21906;DHT22;11117;48.644;9.006;2022-11-15T09:54:04;14.20;99.90
21906;DHT22;11117;48.644;9.006;2022-11-15T09:56:32;14.30;99.90
21906;DHT22;11117;48.644;9.006;2022-11-15T10:02:05;14.60;99.90
21906;DHT22;11117;48.644;9.006;2022-11-15T10:04:38;14.80;99.90
21906;DHT22;11117;48.644;9.006;2022-11-15T10:07:15;14.90;99.90
21906;DHT22;11117;48.644;9.006;2022-11-15T10:09:54;15.00;99.90
21906;DHT22;11117;48.644;9.006;2022-11-15T10:12:21;15.10;99.90
21906;DHT22;11117;48.644;9.006;2022-11-15T10:14:49;15.20;99.90
21906;DHT22;11117;48.644;9.006;2022-11-15T10:17:50;15.30;99.90
21906;DHT22;11117;48.644;9.006;2022-11-15T10:20:22;15.40;99.90
21906;DHT22;11117;48.644;9.006;2022-11-15T10:22:51;15.50;99.90
21906;DHT22;11117;48.644;9.006;2022-11-15T10:25:23;15.50;99.90
21906;DHT22;11117;48.644;9.006;2022-11-15T10:30:50;15.50;99.90
21906;DHT22;11117;48.644;9.006;2022-11-15T10:33:36;15.30;99.90
21906;DHT22;11117;48.644;9.006;2022-11-15T10:41:17;15.30;99.90
21906;DHT22;11117;48.644;9.006;2022-11-15T10:43:44;15.40;99.90
21906;DHT22;11117;48.644;9.006;2022-11-15T10:46:22;15.40;99.90
21906;DHT22;11117;48.644;9.006;2022-11-15T10:48:48;15.30;99.90
21906;DHT22;11117;48.644;9.006;2022-11-15T10:51:25;15.10;99.90
21906;DHT22;11117;48.644;9.006;2022-11-15T10:53:52;15.20;99.90
21906;DHT22;11117;48.644;9.006;2022-11-15T10:56:21;15.10;99.90
21906;DHT22;11117;48.644;9.006;2022-11-15T10:58:56;15.00;99.90
21906;DHT22;11117;48.644;9.006;2022-11-15T11:01:26;14.90;99.90
21906;DHT22;11117;48.644;9.006;2022-11-15T11:04:08;14.80;99.90
21906;DHT22;11117;48.644;9.006;2022-11-15T11:06:51;14.80;99.90
21906;DHT22;11117;48.644;9.006;2022-11-15T11:09:28;14.60;99.90
21906;DHT22;11117;48.644;9.006;2022-11-15T11:11:54;14.60;99.90
21906;DHT22;11117;48.644;9.006;2022-11-15T11:14:24;14.50;99.90
21906;DHT22;11117;48.644;9.006;2022-11-15T11:16:54;14.40;99.90
21906;DHT22;11117;48.644;9.006;2022-11-15T11:30:02;14.90;99.90
21906;DHT22;11117;48.644;9.006;2022-11-15T11:32:50;15.00;99.90
21906;DHT22;11117;48.644;9.006;2022-11-15T11:45:56;15.70;99.90
21906;DHT22;11117;48.644;9.006;2022-11-15T11:48:47;15.80;99.90
21906;DHT22;11117;48.644;9.006;2022-11-15T11:51:39;15.90;99.90
21906;DHT22;11117;48.644;9.006;2022-11-15T11:54:32;16.00;99.90
21906;DHT22;11117;48.644;9.006;2022-11-15T11:57:02;16.00;99.90
21906;DHT22;11117;48.644;9.006;2022-11-15T11:59:33;16.10;99.90
21906;DHT22;11117;48.644;9.006;2022-11-15T12:02:14;16.20;99.90
21906;DHT22;11117;48.644;9.006;2022-11-15T12:04:44;16.20;99.90
21906;DHT22;11117;48.644;9.006;2022-11-15T12:07:31;16.20;99.90
21906;DHT22;11117;48.644;9.006;2022-11-15T12:10:24;16.20;99.90
21906;DHT22;11117;48.644;9.006;2022-11-15T12:12:55;16.20;99.90
21906;DHT22;11117;48.644;9.006;2022-11-15T12:15:23;16.20;99.90
21906;DHT22;11117;48.644;9.006;2022-11-15T12:17:50;16.20;99.90
21906;DHT22;11117;48.644;9.006;2022-11-15T12:20:22;16.10;99.90
21906;DHT22;11117;48.644;9.006;2022-11-15T12:23:13;16.10;99.90
21906;DHT22;11117;48.644;9.006;2022-11-15T12:26:07;16.10;99.90
21906;DHT22;11117;48.644;9.006;2022-11-15T12:28:38;16.10;99.90
21906;DHT22;11117;48.644;9.006;2022-11-15T12:31:13;16.00;99.90
21906;DHT22;11117;48.644;9.006;2022-11-15T12:33:45;16.00;99.90
21906;DHT22;11117;48.644;9.006;2022-11-15T12:38:56;15.90;99.90
21906;DHT22;11117;48.644;9.006;2022-11-15T12:41:35;15.90;99.90
21906;DHT22;11117;48.644;9.006;2022-11-15T12:44:02;15.90;99.90
21906;DHT22;11117;48.644;9.006;2022-11-15T12:49:03;15.90;99.90
21906;DHT22;11117;48.644;9.006;2022-11-15T12:59:55;15.90;99.90
21906;DHT22;11117;48.644;9.006;2022-11-15T13:05:50;15.90;99.90
21906;DHT22;11117;48.644;9.006;2022-11-15T13:08:06;15.80;99.90
21906;DHT22;11117;48.644;9.006;2022-11-15T13:10:36;15.80;99.90
21906;DHT22;11117;48.644;9.006;2022-11-15T13:13:03;15.80;99.90
21906;DHT22;11117;48.644;9.006;2022-11-15T13:17:56;15.70;99.90
21906;DHT22;11117;48.644;9.006;2022-11-15T13:20:26;15.70;99.90
21906;DHT22;11117;48.644;9.006;2022-11-15T13:28:00;15.40;99.90
21906;DHT22;11117;48.644;9.006;2022-11-15T13:30:31;15.40;99.90
21906;DHT22;11117;48.644;9.006;2022-11-15T13:33:06;15.40;99.90
21906;DHT22;11117;48.644;9.006;2022-11-15T13:35:33;15.50;99.90
21906;DHT22;11117;48.644;9.006;2022-11-15T13:38:04;15.40;99.90
21906;DHT22;11117;48.644;9.006;2022-11-15T13:40:35;15.50;99.90
21906;DHT22;11117;48.644;9.006;2022-11-15T13:43:31;15.40;99.90
21906;DHT22;11117;48.644;9.006;2022-11-15T13:46:14;15.40;99.90
21906;DHT22;11117;48.644;9.006;2022-11-15T13:48:42;15.30;99.90
21906;DHT22;11117;48.644;9.006;2022-11-15T13:51:30;15.20;99.90
21906;DHT22;11117;48.644;9.006;2022-11-15T13:57:19;15.10;99.90
21906;DHT22;11117;48.644;9.006;2022-11-15T13:59:52;14.90;99.90
21906;DHT22;11117;48.644;9.006;2022-11-15T14:02:25;14.80;99.90
21906;DHT22;11117;48.644;9.006;2022-11-15T14:04:58;14.80;99.90
21906;DHT22;11117;48.644;9.006;2022-11-15T14:07:27;14.80;99.90
21906;DHT22;11117;48.644;9.006;2022-11-15T14:09:52;14.80;99.90
21906;DHT22;11117;48.644;9.006;2022-11-15T14:12:31;14.90;99.90
21906;DHT22;11117;48.644;9.006;2022-11-15T14:15:31;15.00;99.90
21906;DHT22;11117;48.644;9.006;2022-11-15T14:17:57;15.00;99.90
21906;DHT22;11117;48.644;9.006;2022-11-15T14:23:03;15.00;99.90
21906;DHT22;11117;48.644;9.006;2022-11-15T14:25:30;15.00;99.90
21906;DHT22;11117;48.644;9.006;2022-11-15T14:28:35;15.00;99.90
21906;DHT22;11117;48.644;9.006;2022-11-15T14:31:00;15.10;99.90
21906;DHT22;11117;48.644;9.006;2022-11-15T14:33:35;15.00;99.90
21906;DHT22;11117;48.644;9.006;2022-11-15T14:36:13;15.00;99.90
21906;DHT22;11117;48.644;9.006;2022-11-15T14:38:40;14.90;99.90
21906;DHT22;11117;48.644;9.006;2022-11-15T14:41:08;14.90;99.90
21906;DHT22;11117;48.644;9.006;2022-11-15T14:43:35;14.80;99.90
21906;DHT22;11117;48.644;9.006;2022-11-15T14:46:01;14.80;99.90
21906;DHT22;11117;48.644;9.006;2022-11-15T14:48:26;14.80;99.90
21906;DHT22;11117;48.644;9.006;2022-11-15T14:50:52;14.70;99.90
21906;DHT22;11117;48.644;9.006;2022-11-15T14:53:18;14.60;99.90
21906;DHT22;11117;48.644;9.006;2022-11-15T14:55:43;14.60;99.90
21906;DHT22;11117;48.644;9.006;2022-11-15T14:58:09;14.50;99.90
21906;DHT22;11117;48.644;9.006;2022-11-15T15:00:37;14.40;99.90
21906;DHT22;11117;48.644;9.006;2022-11-15T15:03:03;14.20;99.90
21906;DHT22;11117;48.644;9.006;2022-11-15T15:05:42;14.10;99.90
21906;DHT22;11117;48.644;9.006;2022-11-15T15:08:09;14.00;99.90
21906;DHT22;11117;48.644;9.006;2022-11-15T15:10:45;13.90;99.90
21906;DHT22;11117;48.644;9.006;2022-11-15T15:13:22;13.90;99.90
21906;DHT22;11117;48.644;9.006;2022-11-15T15:15:49;13.80;99.90
21906;DHT22;11117;48.644;9.006;2022-11-15T15:18:16;13.80;99.90
21906;DHT22;11117;48.644;9.006;2022-11-15T15:20:43;13.70;99.90
21906;DHT22;11117;48.644;9.006;2022-11-15T15:23:17;13.70;99.90
21906;DHT22;11117;48.644;9.006;2022-11-15T15:25:43;13.60;99.90
21906;DHT22;11117;48.644;9.006;2022-11-15T15:28:09;13.60;99.90
21906;DHT22;11117;48.644;9.006;2022-11-15T15:30:35;13.60;99.90
21906;DHT22;11117;48.644;9.006;2022-11-15T15:33:00;13.50;99.90
21906;DHT22;11117;48.644;9.006;2022-11-15T15:35:32;13.50;99.90
21906;DHT22;11117;48.644;9.006;2022-11-15T15:37:58;13.50;99.90
21906;DHT22;11117;48.644;9.006;2022-11-15T15:40:24;13.40;99.90
21906;DHT22;11117;48.644;9.006;2022-11-15T15:42:50;13.40;99.90
21906;DHT22;11117;48.644;9.006;2022-11-15T15:45:17;13.30;99.90
21906;DHT22;11117;48.644;9.006;2022-11-15T15:47:44;13.30;99.90
21906;DHT22;11117;48.644;9.006;2022-11-15T15:52:49;13.20;99.90
21906;DHT22;11117;48.644;9.006;2022-11-15T15:55:14;13.20;99.90
21906;DHT22;11117;48.644;9.006;2022-11-15T15:57:40;13.10;99.90
21906;DHT22;11117;48.644;9.006;2022-11-15T16:00:06;13.10;99.90
21906;DHT22;11117;48.644;9.006;2022-11-15T16:02:32;13.10;99.90
21906;DHT22;11117;48.644;9.006;2022-11-15T16:04:57;13.10;99.90
21906;DHT22;11117;48.644;9.006;2022-11-15T16:07:23;13.00;99.90
21906;DHT22;11117;48.644;9.006;2022-11-15T16:09:49;12.90;99.90
21906;DHT22;11117;48.644;9.006;2022-11-15T16:12:14;12.90;99.90
21906;DHT22;11117;48.644;9.006;2022-11-15T16:14:40;12.90;99.90
21906;DHT22;11117;48.644;9.006;2022-11-15T16:17:05;12.80;99.90
21906;DHT22;11117;48.644;9.006;2022-11-15T16:19:31;12.70;99.90
21906;DHT22;11117;48.644;9.006;2022-11-15T16:21:56;12.70;99.90
21906;DHT22;11117;48.644;9.006;2022-11-15T16:24:25;12.70;99.90
21906;DHT22;11117;48.644;9.006;2022-11-15T16:26:51;12.60;99.90
21906;DHT22;11117;48.644;9.006;2022-11-15T16:29:17;12.60;99.90
21906;DHT22;11117;48.644;9.006;2022-11-15T16:31:42;12.60;99.90
21906;DHT22;11117;48.644;9.006;2022-11-15T16:34:08;12.60;99.90
21906;DHT22;11117;48.644;9.006;2022-11-15T16:36:34;12.50;99.90
21906;DHT22;11117;48.644;9.006;2022-11-15T16:39:00;12.50;99.90
21906;DHT22;11117;48.644;9.006;2022-11-15T16:41:26;12.50;99.90
21906;DHT22;11117;48.644;9.006;2022-11-15T16:43:52;12.50;99.90
21906;DHT22;11117;48.644;9.006;2022-11-15T16:46:23;12.50;99.90
21906;DHT22;11117;48.644;9.006;2022-11-15T16:48:49;12.50;99.90
21906;DHT22;11117;48.644;9.006;2022-11-15T16:51:15;12.50;99.90
21906;DHT22;11117;48.644;9.006;2022-11-15T16:53:41;12.40;99.90
21906;DHT22;11117;48.644;9.006;2022-11-15T16:56:30;12.50;99.90
21906;DHT22;11117;48.644;9.006;2022-11-15T16:58:57;12.40;99.90
21906;DHT22;11117;48.644;9.006;2022-11-15T17:01:25;12.40;99.90
21906;DHT22;11117;48.644;9.006;2022-11-15T17:03:51;12.40;99.90
21906;DHT22;11117;48.644;9.006;2022-11-15T17:06:17;12.40;99.90
21906;DHT22;11117;48.644;9.006;2022-11-15T17:08:44;12.40;99.90
21906;DHT22;11117;48.644;9.006;2022-11-15T17:11:14;12.40;99.90
21906;DHT22;11117;48.644;9.006;2022-11-15T17:13:40;12.40;99.90
21906;DHT22;11117;48.644;9.006;2022-11-15T17:16:08;12.40;99.90
21906;DHT22;11117;48.644;9.006;2022-11-15T17:18:34;12.40;99.90
21906;DHT22;11117;48.644;9.006;2022-11-15T17:21:13;12.40;99.90
21906;DHT22;11117;48.644;9.006;2022-11-15T17:23:38;12.40;99.90
21906;DHT22;11117;48.644;9.006;2022-11-15T17:26:05;12.40;99.90